createdAt,value
2022-12-08T00:02:49.845Z,88.93
2022-12-08T00:06:11.099Z,89.16
2022-12-08T00:09:39.653Z,88.80
2022-12-08T00:12:42.163Z,89.74
2022-12-08T00:15:44.464Z,89.64
2022-12-08T00:18:46.828Z,89.11
2022-12-08T00:21:49.321Z,89.44
2022-12-08T00:24:51.559Z,90.07
2022-12-08T00:27:53.779Z,89.82
2022-12-08T00:30:55.997Z,89.88
2022-12-08T00:33:59.138Z,90.18
2022-12-08T00:37:01.474Z,89.90
2022-12-08T00:40:04.502Z,91.08
2022-12-08T00:43:06.822Z,91.57
2022-12-08T00:46:09.876Z,90.87
2022-12-08T00:49:12.707Z,91.10
2022-12-08T00:52:15.050Z,91.13
2022-12-08T00:55:17.400Z,90.51
2022-12-08T00:58:19.641Z,90.51
2022-12-08T01:01:22.036Z,90.64
2022-12-08T01:04:24.721Z,90.03
2022-12-08T01:07:28.112Z,90.57
2022-12-08T01:10:32.798Z,89.85
2022-12-08T01:13:38.596Z,89.45
2022-12-08T01:16:41.892Z,89.16
2022-12-08T01:19:45.122Z,88.71
2022-12-08T01:22:47.464Z,88.13
2022-12-08T01:25:49.774Z,88.41
2022-12-08T01:28:52.493Z,89.06
2022-12-08T01:31:54.720Z,88.83
2022-12-08T01:34:56.971Z,88.81
2022-12-08T01:37:59.205Z,88.86
2022-12-08T01:41:01.553Z,89.03
2022-12-08T01:44:23.781Z,89.22
2022-12-08T01:47:33.476Z,88.61
2022-12-08T01:50:36.260Z,88.51
2022-12-08T01:53:39.225Z,89.00
2022-12-08T01:56:55.428Z,90.39
2022-12-08T02:00:11.563Z,89.89
2022-12-08T02:03:19.727Z,90.38
2022-12-08T02:06:22.135Z,90.79
2022-12-08T02:09:24.626Z,91.96
2022-12-08T02:12:26.912Z,91.75
2022-12-08T02:15:56.572Z,91.32
2022-12-08T02:19:29.887Z,90.67
2022-12-08T02:22:37.231Z,91.25
2022-12-08T02:25:42.245Z,90.51
2022-12-08T02:29:16.172Z,90.61
2022-12-08T02:32:43.230Z,90.72
2022-12-08T02:35:45.537Z,91.21
2022-12-08T02:38:56.975Z,90.65
2022-12-08T02:42:08.126Z,90.43
2022-12-08T02:45:31.849Z,90.22
2022-12-08T02:48:34.579Z,90.25
2022-12-08T02:51:36.853Z,89.75
2022-12-08T02:54:46.600Z,89.72
2022-12-08T02:58:09.843Z,90.16
2022-12-08T03:01:18.983Z,89.79
2022-12-08T03:04:36.436Z,89.62
2022-12-08T03:07:53.728Z,89.90
2022-12-08T03:11:10.553Z,89.54
2022-12-08T03:14:16.878Z,89.60
2022-12-08T03:17:22.231Z,89.51
2022-12-08T03:20:27.845Z,89.61
2022-12-08T03:23:30.777Z,89.44
2022-12-08T03:26:46.950Z,89.40
2022-12-08T03:29:52.029Z,89.34
2022-12-08T03:33:33.213Z,89.17
2022-12-08T03:36:35.483Z,89.31
2022-12-08T03:39:37.727Z,89.90
2022-12-08T03:42:39.985Z,89.68
2022-12-08T03:45:42.217Z,89.85
2022-12-08T03:48:44.784Z,89.65
2022-12-08T03:51:47.565Z,89.78
2022-12-08T03:54:49.899Z,90.29
2022-12-08T03:57:52.172Z,89.93
2022-12-08T04:00:54.408Z,90.18
2022-12-08T04:03:56.666Z,89.98
2022-12-08T04:06:59.035Z,89.68
2022-12-08T04:10:01.716Z,90.33
2022-12-08T04:13:04.287Z,89.90
2022-12-08T04:16:08.062Z,89.48
2022-12-08T04:19:10.371Z,89.42
2022-12-08T04:22:12.771Z,89.60
2022-12-08T04:25:15.149Z,89.22
2022-12-08T04:28:17.668Z,89.26
2022-12-08T04:31:19.909Z,89.43
2022-12-08T04:34:22.342Z,89.06
2022-12-08T04:37:24.582Z,89.22
2022-12-08T04:40:26.850Z,89.68
2022-12-08T04:43:29.438Z,89.53
2022-12-08T04:46:31.829Z,89.79
2022-12-08T04:49:34.165Z,89.02
2022-12-08T04:52:37.097Z,89.24
2022-12-08T04:55:44.228Z,88.99
2022-12-08T04:58:46.734Z,88.95
2022-12-08T05:01:49.123Z,88.65
2022-12-08T05:04:51.527Z,88.72
2022-12-08T05:07:53.837Z,89.39
2022-12-08T05:11:07.081Z,88.81
2022-12-08T05:14:11.640Z,88.50
2022-12-08T05:17:15.678Z,89.44
2022-12-08T05:20:18.148Z,89.15
2022-12-08T05:23:20.482Z,89.18
2022-12-08T05:26:22.884Z,89.11
2022-12-08T05:29:25.275Z,89.11
2022-12-08T05:32:27.578Z,89.21
2022-12-08T05:35:29.868Z,88.95
2022-12-08T05:38:32.265Z,89.18
2022-12-08T05:41:35.065Z,89.14
2022-12-08T05:44:37.316Z,88.54
2022-12-08T05:47:39.590Z,87.98
2022-12-08T05:50:49.987Z,88.33
2022-12-08T05:54:02.668Z,88.82
2022-12-08T05:57:05.473Z,88.31
2022-12-08T06:00:19.013Z,88.81
2022-12-08T06:03:22.361Z,88.97
2022-12-08T06:06:25.166Z,89.07
2022-12-08T06:09:27.532Z,89.05
2022-12-08T06:12:29.990Z,88.59
2022-12-08T06:15:34.794Z,88.14
2022-12-08T06:18:37.097Z,88.30
2022-12-08T06:21:42.439Z,88.00
2022-12-08T06:24:44.801Z,87.57
2022-12-08T06:27:47.034Z,87.61
2022-12-08T06:30:49.313Z,88.31
2022-12-08T06:33:58.753Z,87.31
2022-12-08T06:37:01.461Z,87.97
2022-12-08T06:40:04.304Z,88.19
2022-12-08T06:43:06.884Z,87.91
2022-12-08T06:46:12.677Z,87.68
2022-12-08T06:49:15.181Z,87.88
2022-12-08T06:52:17.396Z,87.28
2022-12-08T06:55:42.428Z,87.29
2022-12-08T06:58:46.115Z,87.41
2022-12-08T07:01:52.858Z,87.13
2022-12-08T07:04:55.248Z,87.01
2022-12-08T07:07:57.593Z,86.59
2022-12-08T07:10:59.910Z,86.68
2022-12-08T07:14:02.917Z,87.20
2022-12-08T07:17:05.304Z,86.58
2022-12-08T07:20:08.192Z,86.60
2022-12-08T07:23:10.626Z,85.45
2022-12-08T07:26:13.641Z,85.85
2022-12-08T07:29:15.866Z,86.05
2022-12-08T07:32:18.286Z,86.04
2022-12-08T07:35:20.689Z,85.49
2022-12-08T07:38:23.650Z,85.94
2022-12-08T07:41:26.843Z,84.59
2022-12-08T07:44:29.233Z,84.93
2022-12-08T07:47:31.662Z,84.81
2022-12-08T07:50:34.336Z,84.46
2022-12-08T07:53:36.574Z,83.26
2022-12-08T07:56:39.126Z,83.23
2022-12-08T07:59:41.475Z,83.38
2022-12-08T08:02:43.931Z,82.30
2022-12-08T08:05:48.285Z,82.38
2022-12-08T08:08:53.229Z,82.35
2022-12-08T08:12:22.312Z,81.13
2022-12-08T08:15:19.324Z,78.42
2022-12-08T08:18:21.701Z,76.24
2022-12-08T08:24:46.230Z,75.96
2022-12-08T08:27:48.962Z,75.64
2022-12-08T08:30:51.538Z,75.53
2022-12-08T08:33:55.055Z,74.92
2022-12-08T08:36:57.451Z,74.59
2022-12-08T08:39:59.887Z,75.35
2022-12-08T08:43:03.943Z,75.30
2022-12-08T08:46:07.032Z,74.92
2022-12-08T08:49:09.391Z,73.49
2022-12-08T08:52:11.714Z,72.72
2022-12-08T08:55:14.079Z,72.98
2022-12-08T08:58:17.135Z,73.48
2022-12-08T09:01:21.963Z,73.36
2022-12-08T09:04:25.698Z,72.36
2022-12-08T09:07:28.134Z,70.50
2022-12-08T09:10:30.455Z,71.24
2022-12-08T09:13:32.728Z,71.05
2022-12-08T09:16:40.440Z,71.71
2022-12-08T09:19:44.610Z,72.42
2022-12-08T09:22:47.041Z,71.94
2022-12-08T09:25:49.467Z,72.05
2022-12-08T09:28:55.076Z,71.87
2022-12-08T09:31:57.481Z,72.08
2022-12-08T09:34:59.830Z,72.40
2022-12-08T09:41:14.283Z,72.31
2022-12-08T09:44:22.266Z,71.98
2022-12-08T09:47:35.476Z,72.27
2022-12-08T09:50:45.474Z,72.82
2022-12-08T09:54:00.189Z,72.81
2022-12-08T09:57:11.200Z,72.65
2022-12-08T10:00:14.492Z,72.35
2022-12-08T10:03:17.222Z,72.53
2022-12-08T10:06:28.265Z,71.80
2022-12-08T10:09:53.186Z,71.18
2022-12-08T10:13:25.504Z,71.04
2022-12-08T10:16:44.482Z,70.76
2022-12-08T10:19:48.310Z,70.41
2022-12-08T10:23:13.820Z,70.11
2022-12-08T10:26:19.257Z,70.54
2022-12-08T10:29:21.571Z,70.93
2022-12-08T10:32:24.784Z,70.64
2022-12-08T10:35:47.065Z,70.64
2022-12-08T10:38:49.348Z,71.27
2022-12-08T10:41:51.790Z,71.13
2022-12-08T10:45:09.237Z,69.89
2022-12-08T10:48:22.441Z,69.32
2022-12-08T10:51:50.788Z,69.32
2022-12-08T10:54:54.300Z,68.98
2022-12-08T10:57:56.609Z,68.63
2022-12-08T11:01:03.173Z,68.75
2022-12-08T11:04:11.879Z,68.92
2022-12-08T11:07:22.777Z,68.90
2022-12-08T11:10:42.495Z,69.85
2022-12-08T11:13:45.006Z,69.55
2022-12-08T11:16:47.838Z,68.98
2022-12-08T11:20:09.494Z,68.76
2022-12-08T11:23:26.333Z,70.01
2022-12-08T11:26:33.732Z,69.10
2022-12-08T11:29:36.376Z,69.75
2022-12-08T11:32:42.780Z,70.25
2022-12-08T11:35:50.074Z,70.38
2022-12-08T11:38:57.220Z,70.18
2022-12-08T11:42:02.620Z,71.44
2022-12-08T11:45:13.848Z,71.43
2022-12-08T11:48:24.025Z,71.26
2022-12-08T11:51:40.895Z,71.20
2022-12-08T11:54:50.690Z,71.88
2022-12-08T11:57:57.304Z,71.77
2022-12-08T12:00:59.817Z,72.12
2022-12-08T12:04:40.029Z,72.61
2022-12-08T12:07:51.003Z,72.80
2022-12-08T12:11:02.171Z,73.15
2022-12-08T12:14:42.935Z,73.97
2022-12-08T12:18:03.625Z,73.83
2022-12-08T12:21:19.624Z,74.38
2022-12-08T12:24:36.135Z,74.56
2022-12-08T12:27:40.575Z,74.82
2022-12-08T12:31:13.679Z,75.06
2022-12-08T12:34:39.298Z,75.43
2022-12-08T12:37:43.259Z,75.83
2022-12-08T12:40:45.942Z,75.79
2022-12-08T12:44:12.839Z,75.98
2022-12-08T12:47:54.084Z,75.78
2022-12-08T12:50:58.260Z,75.66
2022-12-08T12:54:21.879Z,75.54
2022-12-08T12:57:35.363Z,75.80
2022-12-08T13:00:37.582Z,75.93
2022-12-08T13:03:48.594Z,75.45
2022-12-08T13:06:51.483Z,75.87
2022-12-08T13:10:10.906Z,75.47
2022-12-08T13:13:15.001Z,74.89
2022-12-08T13:16:23.624Z,75.01
2022-12-08T13:19:26.813Z,72.72
2022-12-08T13:22:54.152Z,71.05
2022-12-08T13:26:08.946Z,72.29
2022-12-08T13:29:17.544Z,72.85
2022-12-08T13:33:17.376Z,69.87
2022-12-08T13:36:28.784Z,69.49
2022-12-08T13:39:37.160Z,69.21
2022-12-08T13:42:44.556Z,72.43
2022-12-08T13:46:52.570Z,74.11
2022-12-08T13:51:23.722Z,74.22
2022-12-08T13:57:01.281Z,74.11
2022-12-08T13:59:44.692Z,74.70
2022-12-08T14:02:49.513Z,74.48
2022-12-08T14:09:18.883Z,74.84
2022-12-08T14:12:27.824Z,74.75
2022-12-08T14:15:37.800Z,74.51
2022-12-08T14:18:40.872Z,74.92
2022-12-08T14:21:47.964Z,75.02
2022-12-08T14:24:53.850Z,74.68
2022-12-08T14:28:01.287Z,74.49
2022-12-08T14:31:04.362Z,73.89
2022-12-08T14:34:06.649Z,73.82
2022-12-08T14:37:12.894Z,73.87
2022-12-08T14:40:36.342Z,73.49
2022-12-08T14:43:41.135Z,73.63
2022-12-08T14:47:05.701Z,73.37
2022-12-08T14:50:37.565Z,73.54
2022-12-08T14:53:43.631Z,72.66
2022-12-08T14:56:52.272Z,73.37
2022-12-08T14:59:54.608Z,73.24
2022-12-08T15:02:57.611Z,73.30
2022-12-08T15:06:05.182Z,73.47
2022-12-08T15:09:29.293Z,73.88
2022-12-08T15:12:33.447Z,74.49
2022-12-08T15:15:49.821Z,74.41
2022-12-08T15:19:18.717Z,73.78
2022-12-08T15:22:23.009Z,73.18
2022-12-08T15:25:25.839Z,73.96
2022-12-08T15:28:30.324Z,73.86
2022-12-08T15:31:32.966Z,74.33
2022-12-08T15:34:37.178Z,74.48
2022-12-08T15:37:39.686Z,74.78
2022-12-08T15:40:41.949Z,73.88
2022-12-08T15:43:44.228Z,74.53
2022-12-08T15:46:46.585Z,74.63
2022-12-08T15:49:50.513Z,73.86
2022-12-08T15:52:52.866Z,73.89
2022-12-08T15:56:26.313Z,73.97
2022-12-08T15:59:19.883Z,73.81
2022-12-08T16:02:23.078Z,74.07
2022-12-08T16:06:09.919Z,74.58
2022-12-08T16:09:06.054Z,74.74
2022-12-08T16:13:47.970Z,74.35
2022-12-08T16:16:07.575Z,74.39
2022-12-08T16:19:14.652Z,74.72
2022-12-08T16:26:16.209Z,75.23
2022-12-08T16:29:05.609Z,75.15
2022-12-08T16:32:07.947Z,75.57
2022-12-08T16:35:14.501Z,75.49
2022-12-08T16:38:17.631Z,74.90
2022-12-08T16:41:38.099Z,74.71
2022-12-08T16:44:42.142Z,74.73
2022-12-08T16:47:50.092Z,76.07
2022-12-08T16:50:53.969Z,76.63
2022-12-08T16:53:59.724Z,76.08
2022-12-08T16:57:01.916Z,76.13
2022-12-08T17:00:07.141Z,77.05
2022-12-08T17:03:14.019Z,76.71
2022-12-08T17:06:18.542Z,76.78
2022-12-08T17:09:20.935Z,77.36
2022-12-08T17:12:23.377Z,77.00
2022-12-08T17:15:26.286Z,76.63
2022-12-08T17:18:28.770Z,76.56
2022-12-08T17:21:31.005Z,76.67
2022-12-08T17:24:33.330Z,76.90
2022-12-08T17:27:36.449Z,77.44
2022-12-08T17:30:38.965Z,77.47
2022-12-08T17:33:41.781Z,77.66
2022-12-08T17:36:44.116Z,77.97
2022-12-08T17:39:46.494Z,77.69
2022-12-08T17:42:48.757Z,77.74
2022-12-08T17:45:51.154Z,77.26
2022-12-08T17:48:53.660Z,77.44
2022-12-08T17:52:00.567Z,77.92
2022-12-08T17:55:03.242Z,77.87
2022-12-08T17:58:06.101Z,77.43
2022-12-08T18:01:09.955Z,77.78
2022-12-08T18:04:12.978Z,77.94
2022-12-08T18:07:15.193Z,77.28
2022-12-08T18:10:18.517Z,77.54
2022-12-08T18:13:20.774Z,77.54
2022-12-08T18:16:25.894Z,76.97
2022-12-08T18:19:28.229Z,77.20
2022-12-08T18:22:30.535Z,76.61
2022-12-08T18:25:32.859Z,77.04
2022-12-08T18:28:36.331Z,76.59
2022-12-08T18:31:39.173Z,76.31
2022-12-08T18:34:42.696Z,75.39
2022-12-08T18:37:45.684Z,75.12
2022-12-08T18:40:48.059Z,75.61
2022-12-08T18:43:50.689Z,75.57
2022-12-08T18:46:53.000Z,75.03
2022-12-08T18:49:55.291Z,75.18
2022-12-08T18:52:57.802Z,75.40
2022-12-08T18:56:00.085Z,75.29
2022-12-08T18:59:08.793Z,75.59
2022-12-08T19:02:14.817Z,75.16
2022-12-08T19:05:17.255Z,74.85
2022-12-08T19:08:20.811Z,74.94
2022-12-08T19:11:26.440Z,75.25
2022-12-08T19:14:30.439Z,75.40
2022-12-08T19:17:33.089Z,75.15
2022-12-08T19:20:35.368Z,74.54
2022-12-08T19:23:38.079Z,75.26
2022-12-08T19:26:40.524Z,74.77
2022-12-08T19:29:42.798Z,75.02
2022-12-08T19:32:45.367Z,75.53
2022-12-08T19:35:52.776Z,75.16
2022-12-08T19:39:15.209Z,75.00
2022-12-08T19:42:39.454Z,74.81
2022-12-08T19:45:41.835Z,75.45
2022-12-08T19:48:44.309Z,75.15
2022-12-08T19:51:46.575Z,75.40
2022-12-08T19:54:48.815Z,75.47
2022-12-08T19:57:52.189Z,75.37
2022-12-08T20:00:54.915Z,75.05
2022-12-08T20:03:57.149Z,75.10
2022-12-08T20:06:59.512Z,75.59
2022-12-08T20:10:05.184Z,75.33
2022-12-08T20:13:27.447Z,75.52
2022-12-08T20:16:29.955Z,74.97
2022-12-08T20:19:32.408Z,74.62
2022-12-08T20:22:34.988Z,74.85
2022-12-08T20:25:42.808Z,73.72
2022-12-08T20:28:45.585Z,74.29
2022-12-08T20:31:48.031Z,74.32
2022-12-08T20:34:50.412Z,74.64
2022-12-08T20:37:52.666Z,74.17
2022-12-08T20:40:55.442Z,74.63
2022-12-08T20:43:57.816Z,74.97
2022-12-08T20:47:00.210Z,75.31
2022-12-08T20:50:04.855Z,75.48
2022-12-08T20:53:07.646Z,75.21
2022-12-08T20:56:17.971Z,75.38
2022-12-08T20:59:20.533Z,75.49
2022-12-08T21:02:23.011Z,75.96
2022-12-08T21:05:25.718Z,75.58
2022-12-08T21:08:28.673Z,75.79
2022-12-08T21:11:31.233Z,76.20
2022-12-08T21:14:34.014Z,76.21
2022-12-08T21:17:36.375Z,76.30
2022-12-08T21:20:38.845Z,76.31
2022-12-08T21:23:42.820Z,76.08
2022-12-08T21:26:45.297Z,76.13
2022-12-08T21:29:47.733Z,76.05
2022-12-08T21:32:50.150Z,76.07
2022-12-08T21:36:02.189Z,76.39
2022-12-08T21:39:11.218Z,76.74
2022-12-08T21:42:34.237Z,76.71
2022-12-08T21:45:37.129Z,77.24
2022-12-08T21:48:39.668Z,77.09
2022-12-08T21:51:42.380Z,77.63
2022-12-08T21:54:44.916Z,77.94
2022-12-08T21:57:47.617Z,77.83
2022-12-08T22:00:50.278Z,78.07
2022-12-08T22:03:52.809Z,78.16
2022-12-08T22:06:55.425Z,78.09
2022-12-08T22:09:57.845Z,77.92
2022-12-08T22:13:00.214Z,77.16
2022-12-08T22:16:06.157Z,76.47
2022-12-08T22:19:08.761Z,77.11
2022-12-08T22:22:11.003Z,77.48
2022-12-08T22:25:13.327Z,77.07
2022-12-08T22:28:16.306Z,77.63
2022-12-08T22:31:23.436Z,77.77
2022-12-08T22:34:25.696Z,78.04
2022-12-08T22:37:28.515Z,77.73
2022-12-08T22:40:30.676Z,77.44
2022-12-08T22:43:34.020Z,77.95
2022-12-08T22:46:37.621Z,78.08
2022-12-08T22:49:39.934Z,78.47
2022-12-08T22:52:42.228Z,78.66
2022-12-08T22:55:45.140Z,78.98
2022-12-08T22:58:47.782Z,78.21
2022-12-08T23:01:50.415Z,77.82
2022-12-08T23:04:57.278Z,77.46
2022-12-08T23:07:59.919Z,77.58
2022-12-08T23:11:02.261Z,78.66
2022-12-08T23:14:04.815Z,79.07
2022-12-08T23:17:07.269Z,78.86
2022-12-08T23:20:10.800Z,78.73
2022-12-08T23:23:13.570Z,78.73
2022-12-08T23:26:26.707Z,78.66
2022-12-08T23:29:29.282Z,78.71
2022-12-08T23:32:31.780Z,78.42
2022-12-08T23:35:34.115Z,79.25
2022-12-08T23:38:37.366Z,78.94
2022-12-08T23:41:39.690Z,79.53
2022-12-08T23:44:42.026Z,80.34
2022-12-08T23:47:44.630Z,79.70
2022-12-08T23:50:47.098Z,79.38
2022-12-08T23:53:49.414Z,79.89
2022-12-08T23:56:51.772Z,79.68
2022-12-08T23:59:54.060Z,79.43
